createdAt,value
2022-09-11T00:01:32.561Z,63.14
2022-09-11T00:04:00.223Z,62.95
2022-09-11T00:06:30.093Z,62.53
2022-09-11T00:09:01.099Z,61.98
2022-09-11T00:11:40.410Z,62.07
2022-09-11T00:14:14.843Z,64.07
2022-09-11T00:16:45.217Z,61.58
2022-09-11T00:19:19.321Z,60.87
2022-09-11T00:21:47.697Z,61.62
2022-09-11T00:24:15.166Z,61.79
2022-09-11T00:26:45.163Z,61.79
2022-09-11T00:29:12.577Z,62.15
2022-09-11T00:31:40.220Z,62.29
2022-09-11T00:34:09.770Z,62.25
2022-09-11T00:36:41.317Z,62.92
2022-09-11T00:39:10.763Z,62.78
2022-09-11T00:41:41.277Z,63.38
2022-09-11T00:44:29.702Z,63.42
2022-09-11T00:47:00.272Z,64.12
2022-09-11T00:49:41.014Z,64.47
2022-09-11T00:52:23.139Z,64.34
2022-09-11T00:54:54.338Z,65.08
2022-09-11T00:57:24.702Z,64.97
2022-09-11T00:59:58.499Z,64.79
2022-09-11T01:02:30.078Z,65.33
2022-09-11T01:04:58.138Z,65.46
2022-09-11T01:07:27.095Z,64.91
2022-09-11T01:09:55.933Z,64.66
2022-09-11T01:12:33.022Z,65.24
2022-09-11T01:15:03.897Z,65.70
2022-09-11T01:17:44.146Z,65.37
2022-09-11T01:20:45.071Z,65.76
2022-09-11T01:23:18.518Z,65.56
2022-09-11T01:25:48.925Z,65.88
2022-09-11T01:28:23.319Z,65.65
2022-09-11T01:30:58.168Z,65.70
2022-09-11T01:33:38.114Z,64.88
2022-09-11T01:36:10.263Z,66.69
2022-09-11T01:38:46.806Z,66.01
2022-09-11T01:41:16.860Z,67.29
2022-09-11T01:44:24.685Z,67.80
2022-09-11T01:46:53.583Z,68.39
2022-09-11T01:49:35.462Z,68.48
2022-09-11T01:52:10.837Z,69.54
2022-09-11T01:54:45.181Z,69.49
2022-09-11T01:57:26.143Z,68.66
2022-09-11T02:00:00.982Z,68.07
2022-09-11T02:02:34.837Z,68.23
2022-09-11T02:05:08.858Z,69.19
2022-09-11T02:07:50.031Z,67.79
2022-09-11T02:10:35.217Z,67.99
2022-09-11T02:13:13.914Z,68.69
2022-09-11T02:15:47.847Z,70.30
2022-09-11T02:18:29.398Z,70.02
2022-09-11T02:20:57.241Z,71.09
2022-09-11T02:23:24.726Z,72.55
2022-09-11T02:25:53.898Z,72.85
2022-09-11T02:28:23.769Z,71.44
2022-09-11T02:30:51.349Z,72.17
2022-09-11T02:33:30.627Z,72.22
2022-09-11T02:36:08.611Z,75.31
2022-09-11T02:38:57.287Z,73.82
2022-09-11T02:41:35.719Z,73.10
2022-09-11T02:44:15.188Z,71.95
2022-09-11T02:47:26.810Z,72.12
2022-09-11T02:50:16.130Z,74.15
2022-09-11T02:53:01.202Z,75.16
2022-09-11T02:55:43.719Z,77.16
2022-09-11T02:58:19.573Z,76.87
2022-09-11T03:00:48.172Z,79.25
2022-09-11T03:03:16.025Z,79.80
2022-09-11T03:05:43.590Z,82.07
2022-09-11T03:08:12.046Z,83.22
2022-09-11T03:10:40.437Z,84.12
2022-09-11T03:13:11.043Z,84.31
2022-09-11T03:15:38.336Z,83.30
2022-09-11T03:18:05.829Z,80.10
2022-09-11T03:20:34.203Z,81.12
2022-09-11T03:23:01.997Z,81.71
2022-09-11T03:25:29.929Z,83.33
2022-09-11T03:28:00.313Z,83.90
2022-09-11T03:30:30.011Z,82.90
2022-09-11T03:32:58.491Z,82.54
2022-09-11T03:35:27.226Z,83.25
2022-09-11T03:37:57.776Z,82.30
2022-09-11T03:40:25.304Z,81.57
2022-09-11T03:42:53.087Z,79.52
2022-09-11T03:45:21.445Z,77.82
2022-09-11T03:47:48.862Z,78.52
2022-09-11T03:50:17.777Z,78.21
2022-09-11T03:52:45.126Z,79.50
2022-09-11T03:55:12.535Z,79.98
2022-09-11T03:57:39.898Z,78.96
2022-09-11T04:00:10.674Z,77.23
2022-09-11T04:02:55.686Z,80.80
2022-09-11T04:05:36.589Z,81.50
2022-09-11T04:08:05.279Z,79.33
2022-09-11T04:10:34.399Z,82.34
2022-09-11T04:13:02.833Z,82.63
2022-09-11T04:15:31.077Z,81.33
2022-09-11T04:18:03.359Z,80.11
2022-09-11T04:20:33.755Z,82.14
2022-09-11T04:23:01.219Z,81.98
2022-09-11T04:25:31.480Z,82.50
2022-09-11T04:28:02.826Z,83.43
2022-09-11T04:30:30.333Z,83.07
2022-09-11T04:32:58.995Z,82.95
2022-09-11T04:35:26.442Z,83.32
2022-09-11T04:37:57.064Z,83.40
2022-09-11T04:40:24.378Z,84.39
2022-09-11T04:42:51.846Z,84.43
2022-09-11T04:45:20.291Z,85.71
2022-09-11T04:47:47.835Z,84.95
2022-09-11T04:50:15.742Z,85.26
2022-09-11T04:52:45.361Z,85.54
2022-09-11T04:55:12.986Z,87.79
2022-09-11T04:57:40.280Z,85.29
2022-09-11T05:00:08.880Z,84.90
2022-09-11T05:02:36.827Z,83.56
2022-09-11T05:05:05.679Z,84.38
2022-09-11T05:07:33.379Z,83.58
2022-09-11T05:10:04.630Z,84.25
2022-09-11T05:12:32.007Z,84.02
2022-09-11T05:14:59.652Z,84.11
2022-09-11T05:17:27.268Z,83.28
2022-09-11T05:19:56.017Z,82.11
2022-09-11T05:22:23.996Z,81.87
2022-09-11T05:24:56.022Z,82.93
2022-09-11T05:27:23.282Z,82.40
2022-09-11T05:29:53.380Z,79.70
2022-09-11T05:32:20.687Z,79.53
2022-09-11T05:34:48.235Z,74.66
2022-09-11T05:37:17.022Z,74.69
2022-09-11T05:39:46.138Z,74.65
2022-09-11T05:42:15.291Z,73.83
2022-09-11T05:44:48.105Z,74.32
2022-09-11T05:47:16.298Z,72.77
2022-09-11T05:49:45.885Z,72.16
2022-09-11T05:52:14.841Z,71.08
2022-09-11T05:54:46.317Z,70.06
2022-09-11T05:57:15.152Z,69.30
2022-09-11T05:59:43.517Z,68.17
2022-09-11T06:02:12.207Z,66.38
2022-09-11T06:04:48.274Z,61.44
2022-09-11T06:07:15.602Z,58.23
2022-09-11T06:09:46.169Z,59.00
2022-09-11T06:12:13.535Z,57.72
2022-09-11T06:14:44.423Z,62.02
2022-09-11T06:17:12.408Z,66.26
2022-09-11T06:19:40.026Z,64.33
2022-09-11T06:22:07.504Z,57.17
2022-09-11T06:24:39.307Z,55.59
2022-09-11T06:27:06.931Z,55.86
2022-09-11T06:29:38.059Z,55.46
2022-09-11T06:32:06.895Z,51.91
2022-09-11T06:34:34.548Z,50.43
2022-09-11T06:37:05.906Z,48.62
2022-09-11T06:39:34.264Z,47.08
2022-09-11T06:42:02.955Z,47.61
2022-09-11T06:44:35.109Z,45.93
2022-09-11T06:47:05.337Z,46.15
2022-09-11T06:49:34.914Z,45.59
2022-09-11T06:52:35.338Z,44.84
2022-09-11T06:55:14.620Z,44.13
2022-09-11T06:57:48.367Z,44.09
2022-09-11T07:00:20.295Z,43.36
2022-09-11T07:02:47.675Z,45.73
2022-09-11T07:05:15.817Z,43.39
2022-09-11T07:07:48.347Z,45.34
2022-09-11T07:10:17.136Z,44.76
2022-09-11T07:12:49.326Z,42.55
2022-09-11T07:15:17.087Z,42.74
2022-09-11T07:17:44.458Z,43.05
2022-09-11T07:20:13.854Z,42.65
2022-09-11T07:22:41.352Z,42.10
2022-09-11T07:25:09.153Z,39.90
2022-09-11T07:27:40.057Z,39.14
2022-09-11T07:30:10.483Z,37.00
2022-09-11T07:32:39.949Z,35.53
2022-09-11T07:35:07.780Z,36.38
2022-09-11T07:37:37.774Z,36.42
2022-09-11T07:40:06.041Z,35.68
2022-09-11T07:42:34.040Z,35.77
2022-09-11T07:45:04.324Z,36.92
2022-09-11T07:47:34.574Z,36.62
2022-09-11T07:50:02.927Z,36.14
2022-09-11T07:52:31.852Z,35.78
2022-09-11T07:55:02.137Z,34.79
2022-09-11T07:57:32.191Z,34.80
2022-09-11T08:00:03.896Z,36.14
2022-09-11T08:02:48.544Z,35.98
2022-09-11T08:05:20.948Z,36.07
2022-09-11T08:07:48.553Z,36.71
2022-09-11T08:10:27.349Z,38.58
2022-09-11T08:12:59.637Z,37.21
2022-09-11T08:15:30.757Z,36.57
2022-09-11T08:17:58.256Z,36.66
2022-09-11T08:20:25.598Z,36.30
2022-09-11T08:22:53.018Z,34.35
2022-09-11T08:25:20.386Z,36.36
2022-09-11T08:27:47.648Z,35.52
2022-09-11T08:30:18.819Z,35.31
2022-09-11T08:32:46.626Z,34.36
2022-09-11T08:35:14.022Z,34.35
2022-09-11T08:37:43.286Z,34.84
2022-09-11T08:40:13.070Z,34.68
2022-09-11T08:42:43.479Z,35.99
2022-09-11T08:45:18.269Z,33.56
2022-09-11T08:47:57.551Z,33.08
2022-09-11T08:50:34.516Z,36.08
2022-09-11T08:53:03.521Z,35.76
2022-09-11T08:55:41.368Z,35.04
2022-09-11T08:58:55.397Z,34.52
2022-09-11T09:01:37.323Z,34.51
2022-09-11T09:04:19.929Z,35.06
2022-09-11T09:07:20.149Z,34.65
2022-09-11T09:10:09.031Z,35.48
2022-09-11T09:13:22.138Z,33.41
2022-09-11T09:16:05.808Z,34.60
2022-09-11T09:18:55.420Z,33.25
2022-09-11T09:21:40.526Z,33.67
2022-09-11T09:24:19.915Z,33.68
2022-09-11T09:26:54.243Z,35.72
2022-09-11T09:29:24.394Z,35.14
2022-09-11T09:31:57.428Z,34.33
2022-09-11T09:34:31.227Z,33.78
2022-09-11T09:37:21.986Z,33.31
2022-09-11T09:39:51.296Z,32.28
2022-09-11T09:42:58.936Z,33.69
2022-09-11T09:45:38.875Z,33.90
2022-09-11T09:48:10.686Z,33.70
2022-09-11T09:50:40.646Z,34.75
2022-09-11T09:53:31.313Z,34.99
2022-09-11T09:56:00.459Z,35.31
2022-09-11T09:58:48.898Z,33.27
2022-09-11T10:01:44.875Z,33.83
2022-09-11T10:04:15.313Z,33.32
2022-09-11T10:06:47.672Z,33.91
2022-09-11T10:09:33.911Z,34.72
2022-09-11T10:12:08.847Z,34.17
2022-09-11T10:14:52.280Z,34.13
2022-09-11T10:17:39.501Z,35.39
2022-09-11T10:20:16.117Z,34.64
2022-09-11T10:22:43.907Z,34.46
2022-09-11T10:25:20.739Z,35.00
2022-09-11T10:28:08.960Z,36.09
2022-09-11T10:30:39.531Z,35.07
2022-09-11T10:33:33.659Z,33.69
2022-09-11T10:36:05.443Z,34.39
2022-09-11T10:38:45.347Z,33.92
2022-09-11T10:41:12.955Z,34.81
2022-09-11T10:43:47.600Z,35.11
2022-09-11T10:46:22.791Z,34.96
2022-09-11T10:48:56.564Z,34.36
2022-09-11T10:51:25.908Z,36.34
2022-09-11T10:54:07.165Z,33.31
2022-09-11T10:56:38.363Z,34.92
2022-09-11T10:59:11.868Z,33.00
2022-09-11T11:01:40.036Z,33.89
2022-09-11T11:04:15.340Z,34.73
2022-09-11T11:06:49.194Z,35.11
2022-09-11T11:09:47.717Z,35.23
2022-09-11T11:12:44.405Z,34.73
2022-09-11T11:15:43.714Z,36.25
2022-09-11T11:18:38.795Z,36.64
2022-09-11T11:21:54.725Z,35.55
2022-09-11T11:24:32.319Z,36.15
2022-09-11T11:27:08.801Z,35.82
2022-09-11T11:30:03.670Z,35.62
2022-09-11T11:32:46.887Z,35.96
2022-09-11T11:35:32.034Z,36.74
2022-09-11T11:38:13.090Z,36.33
2022-09-11T11:40:47.981Z,36.84
2022-09-11T11:43:21.265Z,36.80
2022-09-11T11:45:57.066Z,37.51
2022-09-11T11:48:44.283Z,36.46
2022-09-11T11:51:20.145Z,37.08
2022-09-11T11:54:07.629Z,36.84
2022-09-11T11:56:51.847Z,34.93
2022-09-11T11:59:51.697Z,35.81
2022-09-11T12:02:27.918Z,36.09
2022-09-11T12:05:05.432Z,37.09
2022-09-11T12:07:37.301Z,36.60
2022-09-11T12:10:08.129Z,37.58
2022-09-11T12:12:45.383Z,36.74
2022-09-11T12:15:24.310Z,36.16
2022-09-11T12:18:24.915Z,36.35
2022-09-11T12:20:52.999Z,36.06
2022-09-11T12:23:34.028Z,37.90
2022-09-11T12:26:10.326Z,36.34
2022-09-11T12:28:38.045Z,36.17
2022-09-11T12:31:16.489Z,34.93
2022-09-11T12:33:47.271Z,36.19
2022-09-11T12:36:33.851Z,36.96
2022-09-11T12:39:24.053Z,36.12
2022-09-11T12:41:51.717Z,36.18
2022-09-11T12:44:52.350Z,35.68
2022-09-11T12:47:39.788Z,36.12
2022-09-11T12:50:18.077Z,35.86
2022-09-11T12:52:45.429Z,35.46
2022-09-11T12:55:23.291Z,35.84
2022-09-11T12:57:52.072Z,35.44
2022-09-11T13:00:34.068Z,35.63
2022-09-11T13:03:03.328Z,34.60
2022-09-11T13:05:38.876Z,35.24
2022-09-11T13:08:20.324Z,35.80
2022-09-11T13:10:48.104Z,35.99
2022-09-11T13:13:37.443Z,35.24
2022-09-11T13:16:44.567Z,36.13
2022-09-11T13:19:21.150Z,36.26
2022-09-11T13:21:56.576Z,36.03
2022-09-11T13:24:33.137Z,34.19
2022-09-11T13:27:05.774Z,35.76
2022-09-11T13:29:38.534Z,37.26
2022-09-11T13:32:12.389Z,36.57
2022-09-11T13:34:45.047Z,35.11
2022-09-11T13:37:16.264Z,35.23
2022-09-11T13:39:45.085Z,34.80
2022-09-11T13:42:20.929Z,34.75
2022-09-11T13:44:55.870Z,35.20
2022-09-11T13:47:29.078Z,35.65
2022-09-11T13:50:09.860Z,34.84
2022-09-11T13:52:37.304Z,35.33
2022-09-11T13:55:19.162Z,36.38
2022-09-11T13:57:59.177Z,35.02
2022-09-11T14:00:36.938Z,33.96
2022-09-11T14:03:06.867Z,34.20
2022-09-11T14:05:35.102Z,35.13
2022-09-11T14:08:09.841Z,36.16
2022-09-11T14:10:42.978Z,35.52
2022-09-11T14:13:45.679Z,35.40
2022-09-11T14:16:13.441Z,35.42
2022-09-11T14:19:08.401Z,35.89
2022-09-11T14:21:38.250Z,35.48
2022-09-11T14:24:33.455Z,36.62
2022-09-11T14:27:04.270Z,36.30
2022-09-11T14:29:33.698Z,36.19
2022-09-11T14:32:40.091Z,36.08
2022-09-11T14:35:10.346Z,37.22
2022-09-11T14:37:45.740Z,38.05
2022-09-11T14:40:22.446Z,36.83
2022-09-11T14:42:52.590Z,35.01
2022-09-11T14:45:23.068Z,34.66
2022-09-11T14:47:53.660Z,34.77
2022-09-11T14:50:21.310Z,36.21
2022-09-11T14:52:48.679Z,36.05
2022-09-11T14:55:17.964Z,37.01
2022-09-11T14:57:48.736Z,35.98
2022-09-11T15:00:20.335Z,36.20
2022-09-11T15:02:47.938Z,35.75
2022-09-11T15:05:19.085Z,36.29
2022-09-11T15:07:46.467Z,37.27
2022-09-11T15:10:15.189Z,37.80
2022-09-11T15:12:45.174Z,38.17
2022-09-11T15:15:16.164Z,37.61
2022-09-11T15:17:43.627Z,38.26
2022-09-11T15:20:10.999Z,38.03
2022-09-11T15:22:38.874Z,38.79
2022-09-11T15:25:07.098Z,39.67
2022-09-11T15:27:34.374Z,39.74
2022-09-11T15:30:01.930Z,39.43
2022-09-11T15:32:29.602Z,38.47
2022-09-11T15:34:57.266Z,39.01
2022-09-11T15:37:27.475Z,38.95
2022-09-11T15:39:54.929Z,38.94
2022-09-11T15:42:22.331Z,39.07
2022-09-11T15:44:50.683Z,39.98
2022-09-11T15:47:18.073Z,40.16
2022-09-11T15:49:50.253Z,39.29
2022-09-11T15:52:18.072Z,39.89
2022-09-11T15:54:45.711Z,41.93
2022-09-11T15:57:13.228Z,41.66
2022-09-11T15:59:40.997Z,39.69
2022-09-11T16:02:09.462Z,40.45
2022-09-11T16:04:36.828Z,39.93
2022-09-11T16:07:04.843Z,41.45
2022-09-11T16:09:32.990Z,41.06
2022-09-11T16:12:01.946Z,42.61
2022-09-11T16:14:32.713Z,41.12
2022-09-11T16:17:03.070Z,41.66
2022-09-11T16:19:31.575Z,41.74
2022-09-11T16:22:01.724Z,41.07
2022-09-11T16:24:32.800Z,41.82
2022-09-11T16:27:01.677Z,41.75
2022-09-11T16:29:51.485Z,42.08
2022-09-11T16:32:28.532Z,41.96
2022-09-11T16:34:57.676Z,41.84
2022-09-11T16:37:28.494Z,42.73
2022-09-11T16:39:56.315Z,42.32
2022-09-11T16:42:23.780Z,43.05
2022-09-11T16:44:51.199Z,42.59
2022-09-11T16:47:20.182Z,43.64
2022-09-11T16:50:06.412Z,43.19
2022-09-11T16:52:35.346Z,42.97
2022-09-11T16:55:03.490Z,43.32
2022-09-11T16:57:31.086Z,42.89
2022-09-11T16:59:58.666Z,43.43
2022-09-11T17:02:26.557Z,43.76
2022-09-11T17:04:53.906Z,43.10
2022-09-11T17:07:21.216Z,44.07
2022-09-11T17:09:48.689Z,44.69
2022-09-11T17:12:17.883Z,45.05
2022-09-11T17:14:45.400Z,45.69
2022-09-11T17:17:12.827Z,45.12
2022-09-11T17:19:40.194Z,46.29
2022-09-11T17:22:08.661Z,45.59
2022-09-11T17:24:36.450Z,45.36
2022-09-11T17:27:03.786Z,45.44
2022-09-11T17:29:31.186Z,45.59
2022-09-11T17:32:26.251Z,45.51
2022-09-11T17:34:48.516Z,46.10
2022-09-11T17:37:16.197Z,46.51
2022-09-11T17:39:44.214Z,46.02
2022-09-11T17:42:13.442Z,46.29
2022-09-11T17:44:41.609Z,46.21
2022-09-11T17:47:09.235Z,47.45
2022-09-11T17:49:36.948Z,46.66
2022-09-11T17:52:04.414Z,47.04
2022-09-11T17:54:32.141Z,46.71
2022-09-11T17:56:59.533Z,46.29
2022-09-11T17:59:27.137Z,46.73
2022-09-11T18:01:54.598Z,47.95
2022-09-11T18:04:22.533Z,50.03
2022-09-11T18:06:51.202Z,49.79
2022-09-11T18:09:19.980Z,49.59
2022-09-11T18:11:53.972Z,50.10
2022-09-11T18:14:22.967Z,50.44
2022-09-11T18:16:50.671Z,49.51
2022-09-11T18:19:20.418Z,49.55
2022-09-11T18:21:50.561Z,49.94
2022-09-11T18:24:20.772Z,50.77
2022-09-11T18:26:57.255Z,51.54
2022-09-11T18:29:29.998Z,52.15
2022-09-11T18:31:59.926Z,51.88
2022-09-11T18:34:28.835Z,52.46
2022-09-11T18:36:56.420Z,52.92
2022-09-11T18:39:24.400Z,53.28
2022-09-11T18:41:54.727Z,54.31
2022-09-11T18:44:24.655Z,55.05
2022-09-11T18:46:53.121Z,54.24
2022-09-11T18:49:21.430Z,53.41
2022-09-11T18:51:49.323Z,53.47
2022-09-11T18:54:21.387Z,55.12
2022-09-11T18:56:50.704Z,56.03
2022-09-11T18:59:20.185Z,56.32
2022-09-11T19:01:47.909Z,56.60
2022-09-11T19:04:16.442Z,57.13
2022-09-11T19:06:45.292Z,57.79
2022-09-11T19:09:13.515Z,57.51
2022-09-11T19:11:41.988Z,58.11
2022-09-11T19:14:11.873Z,57.49
2022-09-11T19:16:40.208Z,57.52
2022-09-11T19:19:08.414Z,57.43
2022-09-11T19:21:38.986Z,57.55
2022-09-11T19:24:07.697Z,56.90
2022-09-11T19:26:40.326Z,57.62
2022-09-11T19:29:13.279Z,58.03
2022-09-11T19:31:41.076Z,57.91
2022-09-11T19:34:12.021Z,58.32
2022-09-11T19:36:40.320Z,58.83
2022-09-11T19:39:08.368Z,59.07
2022-09-11T19:41:37.713Z,57.98
2022-09-11T19:44:07.313Z,57.80
2022-09-11T19:46:37.388Z,58.16
2022-09-11T19:49:08.938Z,58.31
2022-09-11T19:51:41.968Z,57.50
2022-09-11T19:54:12.084Z,58.14
2022-09-11T19:56:39.524Z,57.72
2022-09-11T19:59:08.380Z,58.53
2022-09-11T20:01:36.114Z,58.73
2022-09-11T20:04:04.701Z,57.93
2022-09-11T20:06:34.308Z,58.32
2022-09-11T20:09:29.370Z,58.97
2022-09-11T20:11:50.857Z,59.78
2022-09-11T20:14:18.341Z,59.60
2022-09-11T20:16:45.737Z,58.96
2022-09-11T20:19:15.041Z,59.01
2022-09-11T20:21:43.167Z,58.46
2022-09-11T20:24:10.712Z,57.90
2022-09-11T20:26:38.189Z,56.95
2022-09-11T20:29:08.730Z,55.07
2022-09-11T20:31:46.366Z,56.43
2022-09-11T20:34:18.652Z,56.66
2022-09-11T20:36:47.192Z,55.81
2022-09-11T20:39:18.000Z,55.53
2022-09-11T20:41:45.511Z,54.79
2022-09-11T20:44:12.889Z,54.88
2022-09-11T20:46:40.956Z,54.38
2022-09-11T20:49:08.443Z,54.50
2022-09-11T20:51:36.181Z,52.88
2022-09-11T20:54:03.743Z,52.60
2022-09-11T20:56:35.222Z,53.32
2022-09-11T20:59:02.500Z,53.75
2022-09-11T21:01:34.191Z,52.72
2022-09-11T21:04:04.439Z,53.75
2022-09-11T21:06:34.153Z,52.96
2022-09-11T21:09:07.724Z,53.96
2022-09-11T21:11:36.121Z,53.14
2022-09-11T21:14:06.662Z,52.20
2022-09-11T21:16:34.761Z,52.48
2022-09-11T21:19:04.079Z,53.86
2022-09-11T21:21:32.929Z,55.39
2022-09-11T21:24:02.799Z,53.62
2022-09-11T21:26:31.137Z,52.11
2022-09-11T21:29:00.421Z,51.97
2022-09-11T21:31:28.590Z,51.76
2022-09-11T21:33:56.555Z,51.32
2022-09-11T21:36:24.329Z,50.38
2022-09-11T21:38:51.748Z,51.54
2022-09-11T21:41:19.361Z,52.61
2022-09-11T21:43:48.710Z,53.32
2022-09-11T21:46:16.105Z,51.93
2022-09-11T21:48:43.496Z,52.83
2022-09-11T21:51:13.124Z,53.06
2022-09-11T21:53:42.836Z,54.06
2022-09-11T21:56:29.559Z,53.93
2022-09-11T21:58:57.543Z,53.78
2022-09-11T22:01:26.635Z,51.20
2022-09-11T22:03:54.715Z,52.83
2022-09-11T22:06:24.528Z,52.12
2022-09-11T22:08:53.410Z,49.83
2022-09-11T22:11:20.932Z,49.82
2022-09-11T22:13:49.531Z,52.17
2022-09-11T22:16:18.952Z,52.18
2022-09-11T22:18:52.215Z,50.20
2022-09-11T22:21:19.602Z,49.28
2022-09-11T22:23:47.280Z,49.64
2022-09-11T22:26:20.025Z,49.44
2022-09-11T22:28:47.649Z,49.38
2022-09-11T22:31:18.294Z,49.43
2022-09-11T22:33:45.748Z,49.53
2022-09-11T22:36:19.818Z,49.01
2022-09-11T22:38:48.634Z,50.02
2022-09-11T22:41:17.319Z,49.60
2022-09-11T22:43:45.186Z,49.16
2022-09-11T22:46:12.689Z,49.75
2022-09-11T22:48:40.270Z,49.71
2022-09-11T22:51:08.403Z,50.88
2022-09-11T22:53:35.856Z,52.31
2022-09-11T22:56:03.269Z,51.51
2022-09-11T22:58:30.735Z,50.69
2022-09-11T23:00:58.591Z,51.76
2022-09-11T23:03:26.823Z,52.85
2022-09-11T23:06:17.314Z,51.52
2022-09-11T23:08:48.142Z,49.54
2022-09-11T23:11:18.776Z,48.13
2022-09-11T23:13:48.588Z,48.71
2022-09-11T23:16:19.274Z,48.85
2022-09-11T23:18:47.257Z,53.40
2022-09-11T23:21:15.025Z,52.32
2022-09-11T23:23:43.468Z,50.62
2022-09-11T23:26:13.410Z,50.53
2022-09-11T23:28:41.193Z,50.98
2022-09-11T23:31:19.498Z,50.89
2022-09-11T23:33:47.920Z,49.95
2022-09-11T23:36:16.130Z,53.00
2022-09-11T23:38:45.184Z,50.72
2022-09-11T23:41:13.022Z,49.75
2022-09-11T23:43:41.574Z,50.33
2022-09-11T23:46:09.256Z,49.00
2022-09-11T23:48:37.008Z,50.31
2022-09-11T23:51:05.568Z,49.97
2022-09-11T23:53:32.903Z,50.09
2022-09-11T23:56:00.262Z,51.36
2022-09-11T23:58:27.669Z,49.76
